createdAt,value
2023-01-11T00:01:22.508Z,10.50
2023-01-11T00:03:51.357Z,8.40
2023-01-11T00:06:21.291Z,10.53
2023-01-11T00:08:49.879Z,11.83
2023-01-11T00:11:18.938Z,9.97
2023-01-11T00:13:47.552Z,10.63
2023-01-11T00:16:16.106Z,11.90
2023-01-11T00:18:44.703Z,9.37
2023-01-11T00:21:13.135Z,9.53
2023-01-11T00:23:43.153Z,9.00
2023-01-11T00:26:14.249Z,8.47
2023-01-11T00:28:43.018Z,8.73
2023-01-11T00:31:11.556Z,9.47
2023-01-11T00:33:40.121Z,9.17
2023-01-11T00:36:10.049Z,9.60
2023-01-11T00:38:54.217Z,9.10
2023-01-11T00:41:43.558Z,8.33
2023-01-11T00:44:30.484Z,7.93
2023-01-11T00:47:16.672Z,8.10
2023-01-11T00:49:45.838Z,8.00
2023-01-11T00:52:14.416Z,7.90
2023-01-11T00:54:43.731Z,9.37
2023-01-11T00:57:13.668Z,8.37
2023-01-11T00:59:42.268Z,7.33
2023-01-11T01:02:13.399Z,8.47
2023-01-11T01:04:43.539Z,7.57
2023-01-11T01:07:12.759Z,8.10
2023-01-11T01:09:41.205Z,9.13
2023-01-11T01:12:10.420Z,8.27
2023-01-11T01:14:39.613Z,10.83
2023-01-11T01:17:10.002Z,9.17
2023-01-11T01:19:40.279Z,7.57
2023-01-11T01:22:09.187Z,8.10
2023-01-11T01:24:37.813Z,7.20
2023-01-11T01:27:06.219Z,7.37
2023-01-11T01:29:34.648Z,7.10
2023-01-11T01:32:04.795Z,7.00
2023-01-11T01:34:37.512Z,8.83
2023-01-11T01:37:06.584Z,6.63
2023-01-11T01:39:35.476Z,7.10
2023-01-11T01:42:04.268Z,7.47
2023-01-11T01:45:02.633Z,7.00
2023-01-11T01:47:42.172Z,6.00
2023-01-11T01:50:17.804Z,7.20
2023-01-11T01:52:52.012Z,7.67
2023-01-11T01:55:30.299Z,6.70
2023-01-11T01:58:01.387Z,6.83
2023-01-11T02:00:30.129Z,7.80
2023-01-11T02:03:03.133Z,7.53
2023-01-11T02:05:31.776Z,7.53
2023-01-11T02:08:02.078Z,8.50
2023-01-11T02:10:30.653Z,7.33
2023-01-11T02:13:02.231Z,8.83
2023-01-11T02:15:31.397Z,6.40
2023-01-11T02:18:01.241Z,7.03
2023-01-11T02:20:56.529Z,7.37
2023-01-11T02:24:11.685Z,7.27
2023-01-11T02:27:07.303Z,8.63
2023-01-11T02:29:52.502Z,6.80
2023-01-11T02:32:32.920Z,9.03
2023-01-11T02:35:12.496Z,7.37
2023-01-11T02:37:52.405Z,6.47
2023-01-11T02:40:29.345Z,6.57
2023-01-11T02:43:23.567Z,6.43
2023-01-11T02:46:01.913Z,7.23
2023-01-11T02:48:38.295Z,6.97
2023-01-11T02:51:11.991Z,6.80
2023-01-11T02:53:47.471Z,6.50
2023-01-11T02:56:24.754Z,5.47
2023-01-11T02:58:56.266Z,7.87
2023-01-11T03:01:26.497Z,7.13
2023-01-11T03:03:56.189Z,5.70
2023-01-11T03:06:28.697Z,4.93
2023-01-11T03:09:32.237Z,6.23
2023-01-11T03:12:37.576Z,5.87
2023-01-11T03:15:33.283Z,6.30
2023-01-11T03:18:20.414Z,4.70
2023-01-11T03:20:57.398Z,5.30
2023-01-11T03:23:36.198Z,5.30
2023-01-11T03:26:17.358Z,6.27
2023-01-11T03:28:55.480Z,5.07
2023-01-11T03:31:32.262Z,4.47
2023-01-11T03:34:14.199Z,4.87
2023-01-11T03:36:52.228Z,3.73
2023-01-11T03:39:29.134Z,5.50
2023-01-11T03:42:01.608Z,4.57
2023-01-11T03:44:34.237Z,3.50
2023-01-11T03:47:08.433Z,3.37
2023-01-11T03:49:41.763Z,4.40
2023-01-11T03:52:13.294Z,3.97
2023-01-11T03:54:42.432Z,2.50
2023-01-11T03:57:17.978Z,3.47
2023-01-11T03:59:46.410Z,1.90
2023-01-11T04:02:19.643Z,2.00
2023-01-11T04:04:49.956Z,1.90
2023-01-11T04:07:18.773Z,2.50
2023-01-11T04:09:47.634Z,1.63
2023-01-11T04:12:16.156Z,1.43
2023-01-11T04:14:44.953Z,2.43
2023-01-11T04:17:13.504Z,2.53
2023-01-11T04:19:43.617Z,1.70
2023-01-11T04:22:13.557Z,1.37
2023-01-11T04:24:42.090Z,1.53
2023-01-11T04:27:10.742Z,1.40
2023-01-11T04:29:39.349Z,1.43
2023-01-11T04:32:07.750Z,1.80
2023-01-11T04:34:36.546Z,1.37
2023-01-11T04:37:05.081Z,2.70
2023-01-11T04:39:35.407Z,2.77
2023-01-11T04:42:22.285Z,3.10
2023-01-11T04:44:52.685Z,2.00
2023-01-11T04:47:23.844Z,2.37
2023-01-11T04:49:52.621Z,3.80
2023-01-11T04:52:22.108Z,3.20
2023-01-11T04:54:52.609Z,3.93
2023-01-11T04:57:21.729Z,4.50
2023-01-11T04:59:50.699Z,4.23
2023-01-11T05:02:19.473Z,4.23
2023-01-11T05:04:48.104Z,4.97
2023-01-11T05:07:16.643Z,6.20
2023-01-11T05:09:45.252Z,7.90
2023-01-11T05:12:15.247Z,8.00
2023-01-11T05:14:43.811Z,11.13
2023-01-11T05:17:15.476Z,13.30
2023-01-11T05:19:44.152Z,12.27
2023-01-11T05:22:13.033Z,16.20
2023-01-11T05:24:41.540Z,17.73
2023-01-11T05:27:09.914Z,19.80
2023-01-11T05:29:39.849Z,23.50
2023-01-11T05:32:08.390Z,19.97
2023-01-11T05:34:37.030Z,15.20
2023-01-11T05:37:05.819Z,18.83
2023-01-11T05:39:34.263Z,11.67
2023-01-11T05:42:02.683Z,15.30
2023-01-11T05:44:48.315Z,15.50
2023-01-11T05:47:18.348Z,18.53
2023-01-11T05:49:46.737Z,15.90
2023-01-11T05:52:15.165Z,12.60
2023-01-11T05:54:43.858Z,12.03
2023-01-11T05:57:12.392Z,9.07
2023-01-11T05:59:41.261Z,15.67
2023-01-11T06:02:10.247Z,13.07
2023-01-11T06:04:41.039Z,15.80
2023-01-11T06:07:10.132Z,14.03
2023-01-11T06:09:39.003Z,15.80
2023-01-11T06:12:08.907Z,13.67
2023-01-11T06:14:38.313Z,17.20
2023-01-11T06:17:06.990Z,23.00
2023-01-11T06:19:35.857Z,17.07
2023-01-11T06:22:06.498Z,18.00
2023-01-11T06:24:35.163Z,20.17
2023-01-11T06:27:10.294Z,20.50
2023-01-11T06:29:40.490Z,25.20
2023-01-11T06:32:11.556Z,20.90
2023-01-11T06:38:20.502Z,19.93
2023-01-11T06:40:56.504Z,21.03
2023-01-11T06:43:30.557Z,20.77
2023-01-11T06:46:02.576Z,22.93
2023-01-11T06:48:33.983Z,16.77
2023-01-11T06:51:11.110Z,23.60
2023-01-11T06:53:43.633Z,15.83
2023-01-11T06:56:24.940Z,20.67
2023-01-11T07:01:40.959Z,20.07
2023-01-11T07:04:10.029Z,21.93
2023-01-11T07:06:51.377Z,15.90
2023-01-11T07:09:27.562Z,18.93
2023-01-11T07:12:00.636Z,16.80
2023-01-11T07:14:31.507Z,15.37
2023-01-11T07:17:01.571Z,21.17
2023-01-11T07:19:32.514Z,19.10
2023-01-11T07:22:05.442Z,16.97
2023-01-11T07:24:52.956Z,20.53
2023-01-11T07:27:33.845Z,19.63
2023-01-11T07:30:17.896Z,21.93
2023-01-11T07:32:50.440Z,21.70
2023-01-11T07:35:19.479Z,19.97
2023-01-11T07:37:49.475Z,17.07
2023-01-11T07:40:21.577Z,15.97
2023-01-11T07:43:11.247Z,11.97
2023-01-11T07:45:47.024Z,16.40
2023-01-11T07:48:30.699Z,14.90
2023-01-11T07:51:02.346Z,18.43
2023-01-11T07:53:42.721Z,19.07
2023-01-11T07:56:28.636Z,17.33
2023-01-11T08:01:55.184Z,22.47
2023-01-11T08:04:34.213Z,17.70
2023-01-11T08:07:09.256Z,20.90
2023-01-11T08:09:42.365Z,15.77
2023-01-11T08:12:35.243Z,17.20
2023-01-11T08:15:07.779Z,17.27
2023-01-11T08:17:46.506Z,21.00
2023-01-11T08:20:29.328Z,21.67
2023-01-11T08:23:02.978Z,18.40
2023-01-11T08:25:33.894Z,12.83
2023-01-11T08:28:38.757Z,15.70
2023-01-11T08:34:24.823Z,10.20
2023-01-11T08:37:03.104Z,15.93
2023-01-11T08:39:36.544Z,11.03
2023-01-11T08:42:10.213Z,11.60
2023-01-11T08:47:32.353Z,17.20
2023-01-11T08:50:01.017Z,15.77
2023-01-11T08:52:29.607Z,14.07
2023-01-11T08:54:59.518Z,14.73
2023-01-11T08:57:31.081Z,13.07
2023-01-11T09:00:02.294Z,13.37
2023-01-11T09:02:32.798Z,14.93
2023-01-11T09:05:03.289Z,10.60
2023-01-11T09:07:34.034Z,9.93
2023-01-11T09:10:20.723Z,12.27
2023-01-11T09:12:53.730Z,14.37
2023-01-11T09:15:24.519Z,16.33
2023-01-11T09:17:57.633Z,13.00
2023-01-11T09:20:26.507Z,13.47
2023-01-11T09:22:55.492Z,10.57
2023-01-11T09:25:24.959Z,10.77
2023-01-11T09:27:55.329Z,8.03
2023-01-11T09:30:28.745Z,17.83
2023-01-11T09:33:05.973Z,12.10
2023-01-11T09:35:39.652Z,20.13
2023-01-11T09:38:08.900Z,9.90
2023-01-11T09:40:53.592Z,14.00
2023-01-11T09:43:27.924Z,14.27
2023-01-11T09:46:06.740Z,8.53
2023-01-11T09:48:44.366Z,8.27
2023-01-11T09:51:16.768Z,13.27
2023-01-11T09:53:52.630Z,13.47
2023-01-11T09:56:47.626Z,8.73
2023-01-11T10:02:42.399Z,12.83
2023-01-11T10:05:36.220Z,11.63
2023-01-11T10:18:59.403Z,12.53
2023-01-11T10:21:49.645Z,8.50
2023-01-11T10:24:39.216Z,9.87
2023-01-11T10:27:22.722Z,6.93
2023-01-11T10:30:13.090Z,11.00
2023-01-11T10:33:06.569Z,9.50
2023-01-11T10:36:31.146Z,11.07
2023-01-11T10:39:22.365Z,10.60
2023-01-11T10:42:02.620Z,5.83
2023-01-11T10:44:48.865Z,11.07
2023-01-11T10:47:22.842Z,8.97
2023-01-11T10:50:00.171Z,7.80
2023-01-11T10:52:40.657Z,9.97
2023-01-11T10:55:14.475Z,10.80
2023-01-11T10:57:59.827Z,11.50
2023-01-11T11:00:42.296Z,10.00
2023-01-11T11:03:55.241Z,11.23
2023-01-11T11:06:37.454Z,8.77
2023-01-11T11:09:21.465Z,10.03
2023-01-11T11:11:56.645Z,10.37
2023-01-11T11:14:35.378Z,9.97
2023-01-11T11:17:19.678Z,12.97
2023-01-11T11:19:48.517Z,10.57
2023-01-11T11:22:17.097Z,9.40
2023-01-11T11:24:51.860Z,14.83
2023-01-11T11:27:28.441Z,9.27
2023-01-11T11:29:58.698Z,9.07
2023-01-11T11:32:47.289Z,9.73
2023-01-11T11:35:32.669Z,11.20
2023-01-11T11:38:01.577Z,10.43
2023-01-11T11:40:36.630Z,7.80
2023-01-11T11:43:18.573Z,14.03
2023-01-11T11:45:56.782Z,8.47
2023-01-11T11:48:27.992Z,16.30
2023-01-11T11:50:59.141Z,15.07
2023-01-11T11:53:36.156Z,15.13
2023-01-11T11:56:17.186Z,14.70
2023-01-11T11:58:46.739Z,11.90
2023-01-11T12:01:27.891Z,13.33
2023-01-11T12:03:59.820Z,13.67
2023-01-11T12:06:30.248Z,9.43
2023-01-11T12:09:01.823Z,12.00
2023-01-11T12:11:35.984Z,10.10
2023-01-11T12:14:18.258Z,9.23
2023-01-11T12:16:47.822Z,13.57
2023-01-11T12:19:42.872Z,12.63
2023-01-11T12:22:16.248Z,19.67
2023-01-11T12:24:44.943Z,13.00
2023-01-11T12:27:32.693Z,10.53
2023-01-11T12:30:23.399Z,15.40
2023-01-11T12:33:25.529Z,20.60
2023-01-11T12:36:03.492Z,13.70
2023-01-11T12:38:40.795Z,11.20
2023-01-11T12:41:43.947Z,14.03
2023-01-11T12:44:21.900Z,13.50
2023-01-11T12:47:11.965Z,11.33
2023-01-11T12:49:47.875Z,14.40
2023-01-11T12:52:45.553Z,14.83
2023-01-11T12:55:30.551Z,14.47
2023-01-11T12:58:09.097Z,12.63
2023-01-11T13:01:22.688Z,16.07
2023-01-11T13:04:40.085Z,13.73
2023-01-11T13:07:23.381Z,20.83
2023-01-11T13:10:18.204Z,12.70
2023-01-11T13:12:53.815Z,14.67
2023-01-11T13:15:42.094Z,15.10
2023-01-11T13:18:22.971Z,14.90
2023-01-11T13:21:02.516Z,14.87
2023-01-11T13:23:40.688Z,10.77
2023-01-11T13:26:22.827Z,14.70
2023-01-11T13:28:57.856Z,12.33
2023-01-11T13:31:27.540Z,11.30
2023-01-11T13:34:04.856Z,10.70
2023-01-11T13:36:41.652Z,12.67
2023-01-11T13:39:21.964Z,11.30
2023-01-11T13:41:55.638Z,14.70
2023-01-11T13:44:28.246Z,16.53
2023-01-11T13:47:12.523Z,15.30
2023-01-11T13:49:55.347Z,15.13
2023-01-11T13:52:38.363Z,17.97
2023-01-11T13:55:24.977Z,12.50
2023-01-11T13:57:59.640Z,15.97
2023-01-11T14:00:34.722Z,18.57
2023-01-11T14:03:17.726Z,13.00
2023-01-11T14:05:56.801Z,14.20
2023-01-11T14:09:00.608Z,16.27
2023-01-11T14:11:42.272Z,15.13
2023-01-11T14:14:47.773Z,14.53
2023-01-11T14:17:32.474Z,20.93
2023-01-11T14:20:14.292Z,13.53
2023-01-11T14:22:54.520Z,12.43
2023-01-11T14:25:26.807Z,19.27
2023-01-11T14:28:30.074Z,14.20
2023-01-11T14:31:34.466Z,16.23
2023-01-11T14:35:07.863Z,17.77
2023-01-11T14:38:31.028Z,20.37
2023-01-11T14:41:48.476Z,15.87
2023-01-11T14:44:36.441Z,18.87
2023-01-11T14:47:51.719Z,16.07
2023-01-11T14:50:33.721Z,19.93
2023-01-11T14:53:06.783Z,15.13
2023-01-11T14:55:45.232Z,18.33
2023-01-11T14:58:26.415Z,17.90
2023-01-11T15:01:11.969Z,12.57
2023-01-11T15:03:58.516Z,18.73
2023-01-11T15:06:32.714Z,15.07
2023-01-11T15:09:02.929Z,15.50
2023-01-11T15:11:41.032Z,14.13
2023-01-11T15:14:26.379Z,13.93
2023-01-11T15:17:22.284Z,12.87
2023-01-11T15:19:53.440Z,16.00
2023-01-11T15:22:31.069Z,16.43
2023-01-11T15:25:03.546Z,13.70
2023-01-11T15:27:38.042Z,14.60
2023-01-11T15:30:30.968Z,17.43
2023-01-11T15:33:29.887Z,21.13
2023-01-11T15:36:08.116Z,15.07
2023-01-11T15:38:43.820Z,16.37
2023-01-11T15:41:51.826Z,19.60
2023-01-11T15:44:36.580Z,15.77
2023-01-11T15:47:31.183Z,18.00
2023-01-11T15:50:29.389Z,14.20
2023-01-11T15:53:48.910Z,16.67
2023-01-11T15:57:04.012Z,18.70
2023-01-11T16:00:33.587Z,17.20
2023-01-11T16:03:31.688Z,16.00
2023-01-11T16:06:14.237Z,12.53
2023-01-11T16:08:57.286Z,15.77
2023-01-11T16:11:35.392Z,24.03
2023-01-11T16:14:39.802Z,17.40
2023-01-11T16:17:14.297Z,14.77
2023-01-11T16:19:46.041Z,13.27
2023-01-11T16:22:19.735Z,16.30
2023-01-11T16:24:54.245Z,13.97
2023-01-11T16:27:28.416Z,16.83
2023-01-11T16:29:58.324Z,14.33
2023-01-11T16:32:32.832Z,16.20
2023-01-11T16:35:02.901Z,16.23
2023-01-11T16:37:38.507Z,16.50
2023-01-11T16:40:14.627Z,17.33
2023-01-11T16:42:48.312Z,16.27
2023-01-11T16:45:22.566Z,19.37
2023-01-11T16:48:05.880Z,14.73
2023-01-11T16:50:36.058Z,14.67
2023-01-11T16:53:05.573Z,16.30
2023-01-11T16:55:37.994Z,17.90
2023-01-11T16:58:09.151Z,13.67
2023-01-11T17:00:40.416Z,15.63
2023-01-11T17:03:29.643Z,14.47
2023-01-11T17:06:20.000Z,19.53
2023-01-11T17:08:52.244Z,17.40
2023-01-11T17:11:41.865Z,16.33
2023-01-11T17:14:47.594Z,13.50
2023-01-11T17:17:18.568Z,19.70
2023-01-11T17:19:49.498Z,18.33
2023-01-11T17:22:23.762Z,16.40
2023-01-11T17:24:56.177Z,11.33
2023-01-11T17:27:30.059Z,15.00
2023-01-11T17:30:00.963Z,17.43
2023-01-11T17:32:37.591Z,10.90
2023-01-11T17:35:12.806Z,14.73
2023-01-11T17:37:43.677Z,15.97
2023-01-11T17:40:23.773Z,16.83
2023-01-11T17:43:10.851Z,15.83
2023-01-11T17:45:40.559Z,12.00
2023-01-11T17:48:16.764Z,16.40
2023-01-11T17:50:50.070Z,9.93
2023-01-11T17:53:26.938Z,13.93
2023-01-11T17:55:57.744Z,13.63
2023-01-11T17:58:28.647Z,13.40
2023-01-11T18:01:20.844Z,18.23
2023-01-11T18:03:53.643Z,13.47
2023-01-11T18:06:30.387Z,11.63
2023-01-11T18:09:01.027Z,16.60
2023-01-11T18:11:31.967Z,17.83
2023-01-11T18:14:04.431Z,15.83
2023-01-11T18:16:33.354Z,15.53
2023-01-11T18:19:23.845Z,12.93
2023-01-11T18:21:54.554Z,14.87
2023-01-11T18:24:32.352Z,10.70
2023-01-11T18:27:27.619Z,18.17
2023-01-11T18:29:58.006Z,12.17
2023-01-11T18:32:28.494Z,12.13
2023-01-11T18:35:00.586Z,13.73
2023-01-11T18:37:29.259Z,15.93
2023-01-11T18:39:59.400Z,19.40
2023-01-11T18:42:32.701Z,20.73
2023-01-11T18:45:01.750Z,14.40
2023-01-11T18:47:30.568Z,15.73
2023-01-11T18:50:00.456Z,14.93
2023-01-11T18:52:29.718Z,14.83
2023-01-11T18:54:58.826Z,18.77
2023-01-11T18:57:27.650Z,21.77
2023-01-11T18:59:56.412Z,16.53
2023-01-11T19:02:28.374Z,19.17
2023-01-11T19:04:59.919Z,16.93
2023-01-11T19:07:28.471Z,19.30
2023-01-11T19:09:59.379Z,16.17
2023-01-11T19:12:27.818Z,15.50
2023-01-11T19:14:56.499Z,16.30
2023-01-11T19:17:27.374Z,13.00
2023-01-11T19:19:55.866Z,14.70
2023-01-11T19:22:26.744Z,12.40
2023-01-11T19:24:55.964Z,16.20
2023-01-11T19:27:24.846Z,13.10
2023-01-11T19:29:56.670Z,18.40
2023-01-11T19:32:25.825Z,18.07
2023-01-11T19:34:58.143Z,19.97
2023-01-11T19:37:30.221Z,18.47
2023-01-11T19:39:58.816Z,10.80
2023-01-11T19:42:27.497Z,17.53
2023-01-11T19:44:56.109Z,10.57
2023-01-11T19:47:24.684Z,10.87
2023-01-11T19:49:56.530Z,13.00
2023-01-11T19:52:25.097Z,14.37
2023-01-11T19:54:56.861Z,12.27
2023-01-11T19:57:25.524Z,14.73
2023-01-11T19:59:54.054Z,17.40
2023-01-11T20:02:23.477Z,18.50
2023-01-11T20:04:52.213Z,14.00
2023-01-11T20:07:20.775Z,14.80
2023-01-11T20:09:49.464Z,15.63
2023-01-11T20:12:19.736Z,8.27
2023-01-11T20:14:48.204Z,16.60
2023-01-11T20:17:21.063Z,12.17
2023-01-11T20:19:54.563Z,15.17
2023-01-11T20:22:23.641Z,9.60
2023-01-11T20:24:52.248Z,10.93
2023-01-11T20:27:22.265Z,8.63
2023-01-11T20:29:50.847Z,16.20
2023-01-11T20:32:39.881Z,7.67
2023-01-11T20:35:19.720Z,11.63
2023-01-11T20:37:55.432Z,11.60
2023-01-11T20:40:24.590Z,10.57
2023-01-11T20:42:55.126Z,8.97
2023-01-11T20:45:23.569Z,11.87
2023-01-11T20:47:52.076Z,13.27
2023-01-11T20:50:20.757Z,9.37
2023-01-11T20:52:50.535Z,10.70
2023-01-11T20:55:19.878Z,15.17
2023-01-11T20:57:48.882Z,5.43
2023-01-11T21:00:20.332Z,14.73
2023-01-11T21:02:50.724Z,16.37
2023-01-11T21:05:19.492Z,11.73
2023-01-11T21:07:50.798Z,8.57
2023-01-11T21:10:19.635Z,8.67
2023-01-11T21:12:50.438Z,13.67
2023-01-11T21:15:20.517Z,12.63
2023-01-11T21:17:49.093Z,11.70
2023-01-11T21:20:18.359Z,13.43
2023-01-11T21:22:47.388Z,14.60
2023-01-11T21:25:17.565Z,11.63
2023-01-11T21:27:48.832Z,12.80
2023-01-11T21:30:20.896Z,12.10
2023-01-11T21:32:49.313Z,10.50
2023-01-11T21:35:18.085Z,14.57
2023-01-11T21:37:46.821Z,13.50
2023-01-11T21:40:15.687Z,12.93
2023-01-11T21:42:44.573Z,10.30
2023-01-11T21:45:13.293Z,9.67
2023-01-11T21:47:45.642Z,12.67
2023-01-11T21:50:14.608Z,8.27
2023-01-11T21:52:43.157Z,9.60
2023-01-11T21:55:12.236Z,10.23
2023-01-11T21:57:40.889Z,10.60
2023-01-11T22:00:14.160Z,13.50
2023-01-11T22:02:44.275Z,11.03
2023-01-11T22:05:12.856Z,11.23
2023-01-11T22:07:43.735Z,9.10
2023-01-11T22:10:13.118Z,12.00
2023-01-11T22:12:41.570Z,7.90
2023-01-11T22:15:11.675Z,10.83
2023-01-11T22:17:40.191Z,5.30
2023-01-11T22:20:12.504Z,11.83
2023-01-11T22:22:40.999Z,9.87
2023-01-11T22:25:10.251Z,10.90
2023-01-11T22:27:38.751Z,8.70
2023-01-11T22:30:08.858Z,10.87
2023-01-11T22:32:37.687Z,13.40
2023-01-11T22:35:07.075Z,8.40
2023-01-11T22:37:37.055Z,5.07
2023-01-11T22:40:06.383Z,10.73
2023-01-11T22:42:34.933Z,6.40
2023-01-11T22:45:04.570Z,10.37
2023-01-11T22:47:33.160Z,13.23
2023-01-11T22:50:01.637Z,8.23
2023-01-11T22:52:30.653Z,10.50
2023-01-11T22:55:00.545Z,9.43
2023-01-11T22:57:29.833Z,10.73
2023-01-11T22:59:58.997Z,7.57
2023-01-11T23:02:27.635Z,9.53
2023-01-11T23:04:56.195Z,10.17
2023-01-11T23:07:24.767Z,10.83
2023-01-11T23:09:53.309Z,11.13
2023-01-11T23:12:40.784Z,10.27
2023-01-11T23:15:10.887Z,9.07
2023-01-11T23:17:39.363Z,10.90
2023-01-11T23:20:08.952Z,10.87
2023-01-11T23:22:37.615Z,9.10
2023-01-11T23:25:07.434Z,14.20
2023-01-11T23:27:37.883Z,8.83
2023-01-11T23:30:12.437Z,7.37
2023-01-11T23:32:57.458Z,9.83
2023-01-11T23:35:28.942Z,8.73
2023-01-11T23:37:59.307Z,14.93
2023-01-11T23:41:06.591Z,10.17
2023-01-11T23:43:42.083Z,8.57
2023-01-11T23:49:36.245Z,11.60
2023-01-11T23:52:11.642Z,12.80
2023-01-11T23:58:05.026Z,9.87
